sensor_id;sensor_type;location;lat;lon;timestamp;P1;durP1;ratioP1;P2;durP2;ratioP2
17424;SDS011;8830;50.978;5.058;2023-03-03T00:00:03;37.97;;;23.10;;
17424;SDS011;8830;50.978;5.058;2023-03-03T00:02:31;42.23;;;24.03;;
17424;SDS011;8830;50.978;5.058;2023-03-03T00:04:58;42.20;;;23.90;;
17424;SDS011;8830;50.978;5.058;2023-03-03T00:07:25;42.70;;;24.33;;
17424;SDS011;8830;50.978;5.058;2023-03-03T00:09:53;38.93;;;24.07;;
17424;SDS011;8830;50.978;5.058;2023-03-03T00:12:21;39.33;;;23.43;;
17424;SDS011;8830;50.978;5.058;2023-03-03T00:14:50;38.23;;;23.57;;
17424;SDS011;8830;50.978;5.058;2023-03-03T00:17:20;43.63;;;25.33;;
17424;SDS011;8830;50.978;5.058;2023-03-03T00:19:48;40.17;;;24.53;;
17424;SDS011;8830;50.978;5.058;2023-03-03T00:22:27;39.07;;;23.27;;
17424;SDS011;8830;50.978;5.058;2023-03-03T00:24:59;35.27;;;22.80;;
17424;SDS011;8830;50.978;5.058;2023-03-03T00:27:46;40.53;;;22.73;;
17424;SDS011;8830;50.978;5.058;2023-03-03T00:30:16;37.63;;;23.10;;
17424;SDS011;8830;50.978;5.058;2023-03-03T00:32:48;39.17;;;22.93;;
17424;SDS011;8830;50.978;5.058;2023-03-03T00:35:20;39.03;;;23.13;;
17424;SDS011;8830;50.978;5.058;2023-03-03T00:37:55;39.20;;;22.77;;
17424;SDS011;8830;50.978;5.058;2023-03-03T00:40:29;39.30;;;23.00;;
17424;SDS011;8830;50.978;5.058;2023-03-03T00:43:00;35.30;;;21.57;;
17424;SDS011;8830;50.978;5.058;2023-03-03T00:45:38;40.50;;;22.73;;
17424;SDS011;8830;50.978;5.058;2023-03-03T00:48:20;36.80;;;22.27;;
17424;SDS011;8830;50.978;5.058;2023-03-03T00:50:50;40.53;;;21.67;;
17424;SDS011;8830;50.978;5.058;2023-03-03T00:53:19;38.13;;;22.70;;
17424;SDS011;8830;50.978;5.058;2023-03-03T00:55:49;40.07;;;22.77;;
17424;SDS011;8830;50.978;5.058;2023-03-03T00:58:17;37.00;;;21.67;;
17424;SDS011;8830;50.978;5.058;2023-03-03T01:00:48;38.57;;;21.70;;
17424;SDS011;8830;50.978;5.058;2023-03-03T01:03:17;36.53;;;22.60;;
17424;SDS011;8830;50.978;5.058;2023-03-03T01:05:48;39.13;;;23.03;;
17424;SDS011;8830;50.978;5.058;2023-03-03T01:08:16;41.70;;;21.83;;
17424;SDS011;8830;50.978;5.058;2023-03-03T01:10:45;39.50;;;21.97;;
17424;SDS011;8830;50.978;5.058;2023-03-03T01:13:16;39.60;;;21.70;;
17424;SDS011;8830;50.978;5.058;2023-03-03T01:15:44;41.30;;;22.80;;
17424;SDS011;8830;50.978;5.058;2023-03-03T01:18:11;39.17;;;22.13;;
17424;SDS011;8830;50.978;5.058;2023-03-03T01:20:39;39.43;;;23.00;;
17424;SDS011;8830;50.978;5.058;2023-03-03T01:23:06;39.63;;;23.40;;
17424;SDS011;8830;50.978;5.058;2023-03-03T01:25:34;38.77;;;22.17;;
17424;SDS011;8830;50.978;5.058;2023-03-03T01:28:01;35.60;;;21.93;;
17424;SDS011;8830;50.978;5.058;2023-03-03T01:30:30;42.17;;;23.27;;
17424;SDS011;8830;50.978;5.058;2023-03-03T01:32:57;38.87;;;21.10;;
17424;SDS011;8830;50.978;5.058;2023-03-03T01:35:25;34.33;;;20.43;;
17424;SDS011;8830;50.978;5.058;2023-03-03T01:37:53;43.20;;;22.57;;
17424;SDS011;8830;50.978;5.058;2023-03-03T01:40:21;41.87;;;21.57;;
17424;SDS011;8830;50.978;5.058;2023-03-03T01:42:49;35.13;;;21.10;;
17424;SDS011;8830;50.978;5.058;2023-03-03T01:45:18;32.90;;;20.03;;
17424;SDS011;8830;50.978;5.058;2023-03-03T01:47:50;32.83;;;20.40;;
17424;SDS011;8830;50.978;5.058;2023-03-03T01:50:29;33.77;;;20.60;;
17424;SDS011;8830;50.978;5.058;2023-03-03T01:53:02;34.43;;;20.50;;
17424;SDS011;8830;50.978;5.058;2023-03-03T01:55:33;32.63;;;20.77;;
17424;SDS011;8830;50.978;5.058;2023-03-03T01:58:02;33.43;;;20.63;;
17424;SDS011;8830;50.978;5.058;2023-03-03T02:00:33;38.03;;;20.37;;
17424;SDS011;8830;50.978;5.058;2023-03-03T02:03:03;42.53;;;20.93;;
17424;SDS011;8830;50.978;5.058;2023-03-03T02:05:30;37.30;;;20.07;;
17424;SDS011;8830;50.978;5.058;2023-03-03T02:07:58;35.70;;;20.23;;
17424;SDS011;8830;50.978;5.058;2023-03-03T02:10:25;28.23;;;18.53;;
17424;SDS011;8830;50.978;5.058;2023-03-03T02:12:55;35.17;;;20.40;;
17424;SDS011;8830;50.978;5.058;2023-03-03T02:15:24;32.83;;;19.13;;
17424;SDS011;8830;50.978;5.058;2023-03-03T02:17:53;33.93;;;19.60;;
17424;SDS011;8830;50.978;5.058;2023-03-03T02:20:27;34.43;;;21.13;;
17424;SDS011;8830;50.978;5.058;2023-03-03T02:23:08;32.20;;;19.70;;
17424;SDS011;8830;50.978;5.058;2023-03-03T02:25:43;31.70;;;18.43;;
17424;SDS011;8830;50.978;5.058;2023-03-03T02:28:19;33.60;;;19.57;;
17424;SDS011;8830;50.978;5.058;2023-03-03T02:30:47;37.17;;;19.53;;
17424;SDS011;8830;50.978;5.058;2023-03-03T02:33:14;35.13;;;20.30;;
17424;SDS011;8830;50.978;5.058;2023-03-03T02:35:41;33.40;;;20.57;;
17424;SDS011;8830;50.978;5.058;2023-03-03T02:38:14;36.17;;;19.90;;
17424;SDS011;8830;50.978;5.058;2023-03-03T02:40:51;36.60;;;20.77;;
17424;SDS011;8830;50.978;5.058;2023-03-03T02:43:27;36.03;;;20.43;;
17424;SDS011;8830;50.978;5.058;2023-03-03T02:45:59;41.83;;;24.30;;
17424;SDS011;8830;50.978;5.058;2023-03-03T02:48:25;48.27;;;25.83;;
17424;SDS011;8830;50.978;5.058;2023-03-03T02:50:53;47.70;;;25.20;;
17424;SDS011;8830;50.978;5.058;2023-03-03T02:53:19;50.73;;;26.40;;
17424;SDS011;8830;50.978;5.058;2023-03-03T02:55:46;51.20;;;26.80;;
17424;SDS011;8830;50.978;5.058;2023-03-03T02:58:13;48.20;;;25.67;;
17424;SDS011;8830;50.978;5.058;2023-03-03T03:00:41;47.33;;;25.23;;
17424;SDS011;8830;50.978;5.058;2023-03-03T03:03:11;41.53;;;25.10;;
17424;SDS011;8830;50.978;5.058;2023-03-03T03:05:39;43.70;;;24.03;;
17424;SDS011;8830;50.978;5.058;2023-03-03T03:08:06;37.13;;;22.43;;
17424;SDS011;8830;50.978;5.058;2023-03-03T03:10:33;44.33;;;23.10;;
17424;SDS011;8830;50.978;5.058;2023-03-03T03:13:01;39.37;;;22.57;;
17424;SDS011;8830;50.978;5.058;2023-03-03T03:15:28;46.23;;;23.60;;
17424;SDS011;8830;50.978;5.058;2023-03-03T03:17:56;42.60;;;22.23;;
17424;SDS011;8830;50.978;5.058;2023-03-03T03:20:24;43.97;;;23.33;;
17424;SDS011;8830;50.978;5.058;2023-03-03T03:22:51;38.77;;;21.30;;
17424;SDS011;8830;50.978;5.058;2023-03-03T03:25:18;40.60;;;22.63;;
17424;SDS011;8830;50.978;5.058;2023-03-03T03:27:45;41.43;;;22.00;;
17424;SDS011;8830;50.978;5.058;2023-03-03T03:30:12;35.03;;;20.77;;
17424;SDS011;8830;50.978;5.058;2023-03-03T03:32:40;44.37;;;23.70;;
17424;SDS011;8830;50.978;5.058;2023-03-03T03:35:08;41.03;;;22.80;;
17424;SDS011;8830;50.978;5.058;2023-03-03T03:37:36;45.10;;;23.23;;
17424;SDS011;8830;50.978;5.058;2023-03-03T03:40:03;47.43;;;24.53;;
17424;SDS011;8830;50.978;5.058;2023-03-03T03:42:31;39.53;;;21.53;;
17424;SDS011;8830;50.978;5.058;2023-03-03T03:44:58;42.00;;;23.17;;
17424;SDS011;8830;50.978;5.058;2023-03-03T03:47:24;40.23;;;22.60;;
17424;SDS011;8830;50.978;5.058;2023-03-03T03:49:52;42.27;;;23.67;;
17424;SDS011;8830;50.978;5.058;2023-03-03T03:52:20;45.37;;;24.00;;
17424;SDS011;8830;50.978;5.058;2023-03-03T03:54:47;44.83;;;23.27;;
17424;SDS011;8830;50.978;5.058;2023-03-03T03:57:15;42.40;;;22.20;;
17424;SDS011;8830;50.978;5.058;2023-03-03T03:59:41;44.93;;;23.83;;
17424;SDS011;8830;50.978;5.058;2023-03-03T04:02:08;43.90;;;22.33;;
17424;SDS011;8830;50.978;5.058;2023-03-03T04:04:36;41.30;;;21.70;;
17424;SDS011;8830;50.978;5.058;2023-03-03T04:07:03;42.63;;;22.17;;
17424;SDS011;8830;50.978;5.058;2023-03-03T04:09:31;39.53;;;21.30;;
17424;SDS011;8830;50.978;5.058;2023-03-03T04:11:58;42.70;;;23.27;;
17424;SDS011;8830;50.978;5.058;2023-03-03T04:14:25;43.83;;;21.30;;
17424;SDS011;8830;50.978;5.058;2023-03-03T04:16:52;43.47;;;22.80;;
17424;SDS011;8830;50.978;5.058;2023-03-03T04:19:19;43.63;;;23.30;;
17424;SDS011;8830;50.978;5.058;2023-03-03T04:21:46;42.47;;;22.07;;
17424;SDS011;8830;50.978;5.058;2023-03-03T04:24:13;46.23;;;23.70;;
17424;SDS011;8830;50.978;5.058;2023-03-03T04:26:41;47.20;;;23.47;;
17424;SDS011;8830;50.978;5.058;2023-03-03T04:29:08;44.23;;;21.53;;
17424;SDS011;8830;50.978;5.058;2023-03-03T04:31:35;43.23;;;21.93;;
17424;SDS011;8830;50.978;5.058;2023-03-03T04:34:02;47.30;;;23.10;;
17424;SDS011;8830;50.978;5.058;2023-03-03T04:36:30;45.70;;;23.47;;
17424;SDS011;8830;50.978;5.058;2023-03-03T04:38:57;46.37;;;22.67;;
17424;SDS011;8830;50.978;5.058;2023-03-03T04:41:23;49.93;;;23.63;;
17424;SDS011;8830;50.978;5.058;2023-03-03T04:43:52;48.70;;;23.00;;
17424;SDS011;8830;50.978;5.058;2023-03-03T04:46:19;49.17;;;23.90;;
17424;SDS011;8830;50.978;5.058;2023-03-03T04:48:46;42.43;;;21.83;;
17424;SDS011;8830;50.978;5.058;2023-03-03T04:51:12;48.37;;;22.60;;
17424;SDS011;8830;50.978;5.058;2023-03-03T04:53:40;49.47;;;21.77;;
17424;SDS011;8830;50.978;5.058;2023-03-03T04:56:07;44.97;;;22.17;;
17424;SDS011;8830;50.978;5.058;2023-03-03T04:58:34;46.13;;;22.53;;
17424;SDS011;8830;50.978;5.058;2023-03-03T05:01:03;40.90;;;20.60;;
17424;SDS011;8830;50.978;5.058;2023-03-03T05:03:30;47.33;;;21.63;;
17424;SDS011;8830;50.978;5.058;2023-03-03T05:05:57;42.67;;;22.03;;
17424;SDS011;8830;50.978;5.058;2023-03-03T05:08:25;49.87;;;23.97;;
17424;SDS011;8830;50.978;5.058;2023-03-03T05:10:52;53.83;;;24.87;;
17424;SDS011;8830;50.978;5.058;2023-03-03T05:13:19;50.40;;;24.27;;
17424;SDS011;8830;50.978;5.058;2023-03-03T05:15:49;48.33;;;23.10;;
17424;SDS011;8830;50.978;5.058;2023-03-03T05:18:19;52.80;;;25.73;;
17424;SDS011;8830;50.978;5.058;2023-03-03T05:20:46;45.10;;;23.03;;
17424;SDS011;8830;50.978;5.058;2023-03-03T05:23:13;52.97;;;24.73;;
17424;SDS011;8830;50.978;5.058;2023-03-03T05:25:40;50.53;;;22.77;;
17424;SDS011;8830;50.978;5.058;2023-03-03T05:28:07;52.67;;;22.60;;
17424;SDS011;8830;50.978;5.058;2023-03-03T05:30:35;48.37;;;22.47;;
17424;SDS011;8830;50.978;5.058;2023-03-03T05:33:03;44.30;;;22.33;;
17424;SDS011;8830;50.978;5.058;2023-03-03T05:35:32;50.67;;;23.93;;
17424;SDS011;8830;50.978;5.058;2023-03-03T05:37:59;48.17;;;23.10;;
17424;SDS011;8830;50.978;5.058;2023-03-03T05:40:27;49.87;;;23.80;;
17424;SDS011;8830;50.978;5.058;2023-03-03T05:42:54;50.93;;;23.30;;
17424;SDS011;8830;50.978;5.058;2023-03-03T05:45:21;55.03;;;24.60;;
17424;SDS011;8830;50.978;5.058;2023-03-03T05:47:48;53.10;;;23.03;;
17424;SDS011;8830;50.978;5.058;2023-03-03T05:50:16;52.13;;;23.03;;
17424;SDS011;8830;50.978;5.058;2023-03-03T05:52:46;53.33;;;23.87;;
17424;SDS011;8830;50.978;5.058;2023-03-03T05:55:14;47.80;;;22.40;;
17424;SDS011;8830;50.978;5.058;2023-03-03T05:57:41;49.63;;;23.13;;
17424;SDS011;8830;50.978;5.058;2023-03-03T06:00:09;47.63;;;22.43;;
17424;SDS011;8830;50.978;5.058;2023-03-03T06:02:36;51.60;;;22.70;;
17424;SDS011;8830;50.978;5.058;2023-03-03T06:05:04;54.87;;;23.47;;
17424;SDS011;8830;50.978;5.058;2023-03-03T06:07:31;55.80;;;24.47;;
17424;SDS011;8830;50.978;5.058;2023-03-03T06:10:00;54.73;;;24.60;;
17424;SDS011;8830;50.978;5.058;2023-03-03T06:12:27;49.60;;;22.93;;
17424;SDS011;8830;50.978;5.058;2023-03-03T06:14:54;49.23;;;23.53;;
17424;SDS011;8830;50.978;5.058;2023-03-03T06:17:21;52.07;;;24.50;;
17424;SDS011;8830;50.978;5.058;2023-03-03T06:19:48;52.30;;;23.37;;
17424;SDS011;8830;50.978;5.058;2023-03-03T06:22:15;50.33;;;23.63;;
17424;SDS011;8830;50.978;5.058;2023-03-03T06:24:42;58.77;;;24.93;;
17424;SDS011;8830;50.978;5.058;2023-03-03T06:27:11;53.50;;;23.53;;
17424;SDS011;8830;50.978;5.058;2023-03-03T06:29:38;54.30;;;24.43;;
17424;SDS011;8830;50.978;5.058;2023-03-03T06:32:05;54.97;;;24.10;;
17424;SDS011;8830;50.978;5.058;2023-03-03T06:34:31;58.60;;;25.43;;
17424;SDS011;8830;50.978;5.058;2023-03-03T06:36:58;56.77;;;22.77;;
17424;SDS011;8830;50.978;5.058;2023-03-03T06:39:25;56.17;;;26.13;;
17424;SDS011;8830;50.978;5.058;2023-03-03T06:41:52;46.00;;;22.43;;
17424;SDS011;8830;50.978;5.058;2023-03-03T06:44:21;47.80;;;22.83;;
17424;SDS011;8830;50.978;5.058;2023-03-03T06:46:47;49.87;;;23.73;;
17424;SDS011;8830;50.978;5.058;2023-03-03T06:49:14;64.07;;;24.80;;
17424;SDS011;8830;50.978;5.058;2023-03-03T06:51:41;50.10;;;22.90;;
17424;SDS011;8830;50.978;5.058;2023-03-03T06:54:10;55.53;;;22.10;;
17424;SDS011;8830;50.978;5.058;2023-03-03T06:56:38;46.50;;;22.23;;
17424;SDS011;8830;50.978;5.058;2023-03-03T06:59:09;55.47;;;23.93;;
17424;SDS011;8830;50.978;5.058;2023-03-03T07:01:40;49.30;;;22.87;;
17424;SDS011;8830;50.978;5.058;2023-03-03T07:04:16;54.00;;;24.67;;
17424;SDS011;8830;50.978;5.058;2023-03-03T07:06:52;51.10;;;22.67;;
17424;SDS011;8830;50.978;5.058;2023-03-03T07:09:27;53.37;;;22.67;;
17424;SDS011;8830;50.978;5.058;2023-03-03T07:11:56;49.70;;;22.73;;
17424;SDS011;8830;50.978;5.058;2023-03-03T07:14:27;48.43;;;23.10;;
17424;SDS011;8830;50.978;5.058;2023-03-03T07:16:57;49.53;;;22.77;;
17424;SDS011;8830;50.978;5.058;2023-03-03T07:19:29;48.40;;;21.70;;
17424;SDS011;8830;50.978;5.058;2023-03-03T07:21:59;50.00;;;21.93;;
17424;SDS011;8830;50.978;5.058;2023-03-03T07:24:31;49.33;;;22.53;;
17424;SDS011;8830;50.978;5.058;2023-03-03T07:26:58;46.30;;;22.60;;
17424;SDS011;8830;50.978;5.058;2023-03-03T07:29:32;51.57;;;22.57;;
17424;SDS011;8830;50.978;5.058;2023-03-03T07:32:01;50.53;;;23.23;;
17424;SDS011;8830;50.978;5.058;2023-03-03T07:34:29;45.13;;;22.30;;
17424;SDS011;8830;50.978;5.058;2023-03-03T07:37:05;53.50;;;24.03;;
17424;SDS011;8830;50.978;5.058;2023-03-03T07:39:38;60.30;;;24.43;;
17424;SDS011;8830;50.978;5.058;2023-03-03T07:42:17;60.23;;;27.00;;
17424;SDS011;8830;50.978;5.058;2023-03-03T07:44:48;60.40;;;25.10;;
17424;SDS011;8830;50.978;5.058;2023-03-03T07:47:20;65.70;;;28.60;;
17424;SDS011;8830;50.978;5.058;2023-03-03T07:49:49;60.93;;;27.10;;
17424;SDS011;8830;50.978;5.058;2023-03-03T07:52:20;61.33;;;26.87;;
17424;SDS011;8830;50.978;5.058;2023-03-03T07:54:51;60.00;;;25.80;;
17424;SDS011;8830;50.978;5.058;2023-03-03T07:57:19;55.23;;;26.20;;
17424;SDS011;8830;50.978;5.058;2023-03-03T07:59:49;57.43;;;25.77;;
17424;SDS011;8830;50.978;5.058;2023-03-03T08:07:57;51.40;;;23.97;;
17424;SDS011;8830;50.978;5.058;2023-03-03T08:10:53;48.60;;;23.20;;
17424;SDS011;8830;50.978;5.058;2023-03-03T08:13:22;47.87;;;24.83;;
17424;SDS011;8830;50.978;5.058;2023-03-03T08:15:53;49.10;;;24.13;;
17424;SDS011;8830;50.978;5.058;2023-03-03T08:18:28;55.83;;;24.73;;
17424;SDS011;8830;50.978;5.058;2023-03-03T08:21:00;53.60;;;23.37;;
17424;SDS011;8830;50.978;5.058;2023-03-03T08:23:30;48.27;;;22.43;;
17424;SDS011;8830;50.978;5.058;2023-03-03T08:25:57;50.43;;;23.17;;
17424;SDS011;8830;50.978;5.058;2023-03-03T08:28:24;51.60;;;23.13;;
17424;SDS011;8830;50.978;5.058;2023-03-03T08:30:51;46.17;;;22.33;;
17424;SDS011;8830;50.978;5.058;2023-03-03T08:33:18;49.73;;;23.33;;
17424;SDS011;8830;50.978;5.058;2023-03-03T08:35:47;51.37;;;24.87;;
17424;SDS011;8830;50.978;5.058;2023-03-03T08:38:15;46.17;;;22.93;;
17424;SDS011;8830;50.978;5.058;2023-03-03T08:40:44;51.03;;;22.50;;
17424;SDS011;8830;50.978;5.058;2023-03-03T08:43:11;46.10;;;22.37;;
17424;SDS011;8830;50.978;5.058;2023-03-03T08:45:41;45.73;;;22.57;;
17424;SDS011;8830;50.978;5.058;2023-03-03T08:48:10;48.70;;;22.63;;
17424;SDS011;8830;50.978;5.058;2023-03-03T08:50:37;39.90;;;20.47;;
17424;SDS011;8830;50.978;5.058;2023-03-03T08:53:07;46.87;;;21.83;;
17424;SDS011;8830;50.978;5.058;2023-03-03T08:55:35;38.17;;;20.50;;
17424;SDS011;8830;50.978;5.058;2023-03-03T08:58:05;44.17;;;20.73;;
17424;SDS011;8830;50.978;5.058;2023-03-03T09:00:32;38.03;;;19.13;;
17424;SDS011;8830;50.978;5.058;2023-03-03T09:02:59;39.27;;;20.23;;
17424;SDS011;8830;50.978;5.058;2023-03-03T09:05:28;38.97;;;19.07;;
17424;SDS011;8830;50.978;5.058;2023-03-03T09:07:55;35.80;;;18.90;;
17424;SDS011;8830;50.978;5.058;2023-03-03T09:10:25;38.47;;;19.07;;
17424;SDS011;8830;50.978;5.058;2023-03-03T09:12:55;36.17;;;19.90;;
17424;SDS011;8830;50.978;5.058;2023-03-03T09:15:26;34.03;;;19.20;;
17424;SDS011;8830;50.978;5.058;2023-03-03T09:17:56;35.03;;;18.83;;
17424;SDS011;8830;50.978;5.058;2023-03-03T09:20:32;35.90;;;19.30;;
17424;SDS011;8830;50.978;5.058;2023-03-03T09:23:16;35.37;;;19.20;;
17424;SDS011;8830;50.978;5.058;2023-03-03T09:26:05;31.90;;;18.37;;
17424;SDS011;8830;50.978;5.058;2023-03-03T09:28:47;36.67;;;19.50;;
17424;SDS011;8830;50.978;5.058;2023-03-03T09:31:19;39.40;;;19.07;;
17424;SDS011;8830;50.978;5.058;2023-03-03T09:33:50;33.80;;;18.73;;
17424;SDS011;8830;50.978;5.058;2023-03-03T09:36:22;33.17;;;18.37;;
17424;SDS011;8830;50.978;5.058;2023-03-03T09:38:52;39.57;;;18.70;;
17424;SDS011;8830;50.978;5.058;2023-03-03T09:44:16;35.23;;;18.87;;
17424;SDS011;8830;50.978;5.058;2023-03-03T09:47:05;38.77;;;19.57;;
17424;SDS011;8830;50.978;5.058;2023-03-03T09:49:48;38.57;;;18.83;;
17424;SDS011;8830;50.978;5.058;2023-03-03T09:52:25;41.07;;;20.70;;
17424;SDS011;8830;50.978;5.058;2023-03-03T09:55:01;32.37;;;18.17;;
17424;SDS011;8830;50.978;5.058;2023-03-03T09:57:53;35.07;;;19.37;;
17424;SDS011;8830;50.978;5.058;2023-03-03T10:00:41;32.33;;;18.10;;
17424;SDS011;8830;50.978;5.058;2023-03-03T10:06:24;39.40;;;17.43;;
17424;SDS011;8830;50.978;5.058;2023-03-03T10:09:01;28.87;;;15.53;;
17424;SDS011;8830;50.978;5.058;2023-03-03T10:11:43;33.63;;;18.00;;
17424;SDS011;8830;50.978;5.058;2023-03-03T10:14:29;31.57;;;17.70;;
17424;SDS011;8830;50.978;5.058;2023-03-03T10:17:10;28.67;;;17.40;;
17424;SDS011;8830;50.978;5.058;2023-03-03T10:19:49;26.40;;;15.17;;
17424;SDS011;8830;50.978;5.058;2023-03-03T10:22:27;27.20;;;16.17;;
17424;SDS011;8830;50.978;5.058;2023-03-03T10:25:02;29.83;;;16.93;;
17424;SDS011;8830;50.978;5.058;2023-03-03T10:27:44;35.53;;;17.00;;
17424;SDS011;8830;50.978;5.058;2023-03-03T10:30:20;30.17;;;16.20;;
17424;SDS011;8830;50.978;5.058;2023-03-03T10:32:58;30.90;;;16.87;;
17424;SDS011;8830;50.978;5.058;2023-03-03T10:35:51;35.43;;;17.03;;
17424;SDS011;8830;50.978;5.058;2023-03-03T10:38:37;27.33;;;15.67;;
17424;SDS011;8830;50.978;5.058;2023-03-03T10:41:18;25.93;;;16.23;;
17424;SDS011;8830;50.978;5.058;2023-03-03T10:44:03;33.93;;;16.83;;
17424;SDS011;8830;50.978;5.058;2023-03-03T10:47:11;27.80;;;16.37;;
17424;SDS011;8830;50.978;5.058;2023-03-03T10:49:52;25.67;;;14.37;;
17424;SDS011;8830;50.978;5.058;2023-03-03T10:52:30;24.80;;;15.83;;
17424;SDS011;8830;50.978;5.058;2023-03-03T11:01:05;23.47;;;14.90;;
17424;SDS011;8830;50.978;5.058;2023-03-03T11:06:41;26.60;;;14.53;;
17424;SDS011;8830;50.978;5.058;2023-03-03T11:09:16;25.80;;;14.57;;
17424;SDS011;8830;50.978;5.058;2023-03-03T11:11:57;22.20;;;13.83;;
17424;SDS011;8830;50.978;5.058;2023-03-03T11:14:32;26.60;;;14.63;;
17424;SDS011;8830;50.978;5.058;2023-03-03T11:17:08;20.53;;;13.97;;
17424;SDS011;8830;50.978;5.058;2023-03-03T11:19:51;23.03;;;14.70;;
17424;SDS011;8830;50.978;5.058;2023-03-03T11:22:32;25.00;;;15.80;;
17424;SDS011;8830;50.978;5.058;2023-03-03T11:25:07;27.77;;;14.77;;
17424;SDS011;8830;50.978;5.058;2023-03-03T11:27:54;22.30;;;14.83;;
17424;SDS011;8830;50.978;5.058;2023-03-03T11:30:38;24.40;;;15.50;;
17424;SDS011;8830;50.978;5.058;2023-03-03T11:33:17;31.93;;;15.43;;
17424;SDS011;8830;50.978;5.058;2023-03-03T11:35:49;32.70;;;16.30;;
17424;SDS011;8830;50.978;5.058;2023-03-03T11:38:33;31.90;;;16.30;;
17424;SDS011;8830;50.978;5.058;2023-03-03T11:41:18;30.13;;;15.33;;
17424;SDS011;8830;50.978;5.058;2023-03-03T11:43:53;27.77;;;14.77;;
17424;SDS011;8830;50.978;5.058;2023-03-03T11:46:25;23.17;;;14.67;;
17424;SDS011;8830;50.978;5.058;2023-03-03T11:48:57;23.27;;;14.60;;
17424;SDS011;8830;50.978;5.058;2023-03-03T11:51:31;24.03;;;13.90;;
17424;SDS011;8830;50.978;5.058;2023-03-03T11:54:12;22.43;;;14.33;;
17424;SDS011;8830;50.978;5.058;2023-03-03T11:56:43;22.33;;;14.37;;
17424;SDS011;8830;50.978;5.058;2023-03-03T12:02:12;20.00;;;13.50;;
17424;SDS011;8830;50.978;5.058;2023-03-03T12:04:57;26.63;;;14.43;;
17424;SDS011;8830;50.978;5.058;2023-03-03T12:07:38;31.67;;;14.83;;
17424;SDS011;8830;50.978;5.058;2023-03-03T12:10:18;23.43;;;15.03;;
17424;SDS011;8830;50.978;5.058;2023-03-03T12:12:56;23.70;;;14.57;;
17424;SDS011;8830;50.978;5.058;2023-03-03T12:15:35;23.53;;;14.10;;
17424;SDS011;8830;50.978;5.058;2023-03-03T12:18:13;23.33;;;14.57;;
17424;SDS011;8830;50.978;5.058;2023-03-03T12:21:13;22.80;;;13.77;;
17424;SDS011;8830;50.978;5.058;2023-03-03T12:24:06;23.83;;;14.53;;
17424;SDS011;8830;50.978;5.058;2023-03-03T12:26:53;18.97;;;13.50;;
17424;SDS011;8830;50.978;5.058;2023-03-03T12:29:34;20.47;;;13.73;;
17424;SDS011;8830;50.978;5.058;2023-03-03T12:32:19;23.47;;;14.47;;
17424;SDS011;8830;50.978;5.058;2023-03-03T12:34:57;21.80;;;13.97;;
17424;SDS011;8830;50.978;5.058;2023-03-03T12:37:36;19.43;;;13.63;;
17424;SDS011;8830;50.978;5.058;2023-03-03T12:40:16;18.83;;;13.43;;
17424;SDS011;8830;50.978;5.058;2023-03-03T12:42:55;20.10;;;13.13;;
17424;SDS011;8830;50.978;5.058;2023-03-03T12:45:44;22.30;;;12.77;;
17424;SDS011;8830;50.978;5.058;2023-03-03T12:48:19;22.33;;;14.03;;
17424;SDS011;8830;50.978;5.058;2023-03-03T12:50:52;25.13;;;14.17;;
17424;SDS011;8830;50.978;5.058;2023-03-03T12:53:30;21.17;;;13.13;;
17424;SDS011;8830;50.978;5.058;2023-03-03T12:56:06;20.30;;;12.87;;
17424;SDS011;8830;50.978;5.058;2023-03-03T12:58:42;21.87;;;14.13;;
17424;SDS011;8830;50.978;5.058;2023-03-03T13:01:26;18.87;;;13.50;;
17424;SDS011;8830;50.978;5.058;2023-03-03T13:04:07;20.03;;;12.87;;
17424;SDS011;8830;50.978;5.058;2023-03-03T13:06:43;21.13;;;13.63;;
17424;SDS011;8830;50.978;5.058;2023-03-03T13:09:18;23.10;;;13.33;;
17424;SDS011;8830;50.978;5.058;2023-03-03T13:14:59;17.93;;;11.50;;
17424;SDS011;8830;50.978;5.058;2023-03-03T13:17:37;20.43;;;12.53;;
17424;SDS011;8830;50.978;5.058;2023-03-03T13:20:16;20.60;;;13.23;;
17424;SDS011;8830;50.978;5.058;2023-03-03T13:22:52;21.33;;;13.63;;
17424;SDS011;8830;50.978;5.058;2023-03-03T13:25:32;20.80;;;13.77;;
17424;SDS011;8830;50.978;5.058;2023-03-03T13:28:06;21.77;;;14.40;;
17424;SDS011;8830;50.978;5.058;2023-03-03T13:30:46;22.60;;;13.50;;
17424;SDS011;8830;50.978;5.058;2023-03-03T13:33:22;19.83;;;14.33;;
17424;SDS011;8830;50.978;5.058;2023-03-03T13:35:54;21.27;;;14.63;;
17424;SDS011;8830;50.978;5.058;2023-03-03T13:38:28;20.67;;;14.30;;
17424;SDS011;8830;50.978;5.058;2023-03-03T13:41:00;22.00;;;14.73;;
17424;SDS011;8830;50.978;5.058;2023-03-03T13:43:35;20.60;;;13.70;;
17424;SDS011;8830;50.978;5.058;2023-03-03T13:46:12;23.43;;;15.40;;
17424;SDS011;8830;50.978;5.058;2023-03-03T13:52:01;28.67;;;17.20;;
17424;SDS011;8830;50.978;5.058;2023-03-03T13:54:50;25.77;;;18.13;;
17424;SDS011;8830;50.978;5.058;2023-03-03T13:57:30;25.47;;;16.37;;
17424;SDS011;8830;50.978;5.058;2023-03-03T14:00:11;26.00;;;16.70;;
17424;SDS011;8830;50.978;5.058;2023-03-03T14:02:50;27.30;;;15.63;;
17424;SDS011;8830;50.978;5.058;2023-03-03T14:05:30;20.73;;;12.80;;
17424;SDS011;8830;50.978;5.058;2023-03-03T14:08:06;21.20;;;12.37;;
17424;SDS011;8830;50.978;5.058;2023-03-03T14:10:41;18.80;;;12.13;;
17424;SDS011;8830;50.978;5.058;2023-03-03T14:13:16;24.07;;;12.77;;
17424;SDS011;8830;50.978;5.058;2023-03-03T14:15:53;16.67;;;12.10;;
17424;SDS011;8830;50.978;5.058;2023-03-03T14:18:26;16.90;;;12.67;;
17424;SDS011;8830;50.978;5.058;2023-03-03T14:20:57;18.67;;;13.00;;
17424;SDS011;8830;50.978;5.058;2023-03-03T14:23:30;17.67;;;12.67;;
17424;SDS011;8830;50.978;5.058;2023-03-03T14:26:08;17.07;;;13.07;;
17424;SDS011;8830;50.978;5.058;2023-03-03T14:28:37;20.70;;;13.70;;
17424;SDS011;8830;50.978;5.058;2023-03-03T14:31:14;18.50;;;12.87;;
17424;SDS011;8830;50.978;5.058;2023-03-03T14:33:56;17.10;;;12.27;;
17424;SDS011;8830;50.978;5.058;2023-03-03T14:36:28;18.77;;;12.73;;
17424;SDS011;8830;50.978;5.058;2023-03-03T14:38:57;19.23;;;13.90;;
17424;SDS011;8830;50.978;5.058;2023-03-03T14:41:37;20.13;;;14.10;;
17424;SDS011;8830;50.978;5.058;2023-03-03T14:44:23;20.17;;;14.47;;
17424;SDS011;8830;50.978;5.058;2023-03-03T14:47:02;14.23;;;11.17;;
17424;SDS011;8830;50.978;5.058;2023-03-03T14:49:39;15.37;;;11.70;;
17424;SDS011;8830;50.978;5.058;2023-03-03T14:52:10;21.27;;;11.87;;
17424;SDS011;8830;50.978;5.058;2023-03-03T14:54:50;18.30;;;12.47;;
17424;SDS011;8830;50.978;5.058;2023-03-03T14:57:19;18.77;;;12.33;;
17424;SDS011;8830;50.978;5.058;2023-03-03T14:59:59;16.17;;;12.57;;
17424;SDS011;8830;50.978;5.058;2023-03-03T15:02:39;19.97;;;12.33;;
17424;SDS011;8830;50.978;5.058;2023-03-03T15:05:21;18.43;;;12.63;;
17424;SDS011;8830;50.978;5.058;2023-03-03T15:07:53;22.27;;;11.73;;
17424;SDS011;8830;50.978;5.058;2023-03-03T15:10:28;18.03;;;11.80;;
17424;SDS011;8830;50.978;5.058;2023-03-03T15:12:57;19.20;;;13.60;;
17424;SDS011;8830;50.978;5.058;2023-03-03T15:15:29;19.80;;;13.80;;
17424;SDS011;8830;50.978;5.058;2023-03-03T15:17:57;20.43;;;13.30;;
17424;SDS011;8830;50.978;5.058;2023-03-03T15:20:33;23.43;;;14.87;;
17424;SDS011;8830;50.978;5.058;2023-03-03T15:23:08;19.10;;;12.70;;
17424;SDS011;8830;50.978;5.058;2023-03-03T15:25:38;17.07;;;12.20;;
17424;SDS011;8830;50.978;5.058;2023-03-03T15:28:17;16.47;;;10.50;;
17424;SDS011;8830;50.978;5.058;2023-03-03T15:30:50;18.23;;;11.03;;
17424;SDS011;8830;50.978;5.058;2023-03-03T15:33:21;11.27;;;10.07;;